createdAt,value
2023-02-12T00:01:08.888Z,40.40
2023-02-12T00:03:36.007Z,40.36
2023-02-12T00:06:02.562Z,40.67
2023-02-12T00:08:29.197Z,41.03
2023-02-12T00:10:55.857Z,41.27
2023-02-12T00:13:23.866Z,41.07
2023-02-12T00:15:50.582Z,40.71
2023-02-12T00:18:17.145Z,41.12
2023-02-12T00:20:43.762Z,41.21
2023-02-12T00:23:11.236Z,41.05
2023-02-12T00:25:41.333Z,40.99
2023-02-12T00:28:08.303Z,40.86
2023-02-12T00:30:35.996Z,41.06
2023-02-12T00:33:02.808Z,41.00
2023-02-12T00:35:29.346Z,40.82
2023-02-12T00:37:56.082Z,40.98
2023-02-12T00:40:22.598Z,40.78
2023-02-12T00:42:49.185Z,41.12
2023-02-12T00:45:17.191Z,41.77
2023-02-12T00:47:43.768Z,41.73
2023-02-12T00:50:10.834Z,41.29
2023-02-12T00:52:37.659Z,41.26
2023-02-12T00:55:04.924Z,41.24
2023-02-12T00:57:33.360Z,40.95
2023-02-12T00:59:59.997Z,41.15
2023-02-12T01:02:26.541Z,40.56
2023-02-12T01:04:53.276Z,40.87
2023-02-12T01:07:22.888Z,41.14
2023-02-12T01:09:49.487Z,41.24
2023-02-12T01:12:16.042Z,41.17
2023-02-12T01:14:42.704Z,41.26
2023-02-12T01:17:09.674Z,40.92
2023-02-12T01:19:36.499Z,41.12
2023-02-12T01:22:03.760Z,40.96
2023-02-12T01:24:30.326Z,40.86
2023-02-12T01:26:58.383Z,40.65
2023-02-12T01:29:24.933Z,40.81
2023-02-12T01:31:51.630Z,40.53
2023-02-12T01:34:18.281Z,40.74
2023-02-12T01:36:44.813Z,40.88
2023-02-12T01:39:12.074Z,40.74
2023-02-12T01:41:44.245Z,40.94
2023-02-12T01:44:13.779Z,41.03
2023-02-12T01:46:40.797Z,41.20
2023-02-12T01:49:12.733Z,41.29
2023-02-12T01:51:40.924Z,41.55
2023-02-12T01:54:10.426Z,41.24
2023-02-12T01:56:38.278Z,41.75
2023-02-12T01:59:05.595Z,41.50
2023-02-12T02:01:33.580Z,41.89
2023-02-12T02:04:05.317Z,42.14
2023-02-12T02:06:36.011Z,42.20
2023-02-12T02:09:03.760Z,42.50
2023-02-12T02:11:50.600Z,42.42
2023-02-12T02:14:32.999Z,42.02
2023-02-12T02:17:04.740Z,42.70
2023-02-12T02:19:31.217Z,42.00
2023-02-12T02:22:17.368Z,41.76
2023-02-12T02:25:32.002Z,41.83
2023-02-12T02:28:29.279Z,41.84
2023-02-12T02:31:08.053Z,42.02
2023-02-12T02:33:44.451Z,41.63
2023-02-12T02:36:10.953Z,41.64
2023-02-12T02:38:55.847Z,42.30
2023-02-12T02:41:38.954Z,42.11
2023-02-12T02:44:14.280Z,42.35
2023-02-12T02:46:49.077Z,42.01
2023-02-12T02:49:37.416Z,42.05
2023-02-12T02:52:11.429Z,42.20
2023-02-12T02:54:44.819Z,42.24
2023-02-12T02:57:28.124Z,42.00
2023-02-12T03:00:03.932Z,41.99
2023-02-12T03:02:37.363Z,42.25
2023-02-12T03:05:13.117Z,41.79
2023-02-12T03:07:49.843Z,41.51
2023-02-12T03:10:45.686Z,41.85
2023-02-12T03:13:27.389Z,41.95
2023-02-12T03:16:02.385Z,41.75
2023-02-12T03:18:36.666Z,41.73
2023-02-12T03:21:10.688Z,41.96
2023-02-12T03:23:51.287Z,42.10
2023-02-12T03:26:24.631Z,42.08
2023-02-12T03:28:51.527Z,42.17
2023-02-12T03:31:45.490Z,42.49
2023-02-12T03:34:27.373Z,42.44
2023-02-12T03:37:05.416Z,42.47
2023-02-12T03:39:56.673Z,42.04
2023-02-12T03:42:38.101Z,42.25
2023-02-12T03:45:16.898Z,42.54
2023-02-12T03:48:01.862Z,42.36
2023-02-12T03:50:48.413Z,42.56
2023-02-12T03:53:14.989Z,42.90
2023-02-12T03:55:45.280Z,42.94
2023-02-12T03:58:19.312Z,42.91
2023-02-12T04:00:46.530Z,42.46
2023-02-12T04:03:13.420Z,42.31
2023-02-12T04:05:40.036Z,43.00
2023-02-12T04:08:11.172Z,43.06
2023-02-12T04:11:13.075Z,42.73
2023-02-12T04:13:53.720Z,42.66
2023-02-12T04:16:44.319Z,42.89
2023-02-12T04:19:14.882Z,43.09
2023-02-12T04:21:59.788Z,42.94
2023-02-12T04:24:40.062Z,42.92
2023-02-12T04:27:45.978Z,43.11
2023-02-12T04:30:25.022Z,42.67
2023-02-12T04:33:03.572Z,42.57
2023-02-12T04:35:35.783Z,42.55
2023-02-12T04:38:08.677Z,42.54
2023-02-12T04:40:38.475Z,42.49
2023-02-12T04:43:05.123Z,42.71
2023-02-12T04:45:34.106Z,43.09
2023-02-12T04:48:01.635Z,42.72
2023-02-12T04:50:42.009Z,42.43
2023-02-12T04:53:10.186Z,42.74
2023-02-12T04:55:36.716Z,42.88
2023-02-12T04:58:03.555Z,42.63
2023-02-12T05:00:30.202Z,42.95
2023-02-12T05:02:56.900Z,43.09
2023-02-12T05:05:23.540Z,43.42
2023-02-12T05:07:50.242Z,43.47
2023-02-12T05:10:16.987Z,43.65
2023-02-12T05:12:43.526Z,43.61
2023-02-12T05:15:10.623Z,43.69
2023-02-12T05:17:38.136Z,43.62
2023-02-12T05:20:05.848Z,43.50
2023-02-12T05:22:32.355Z,43.53
2023-02-12T05:24:58.881Z,43.84
2023-02-12T05:27:25.472Z,43.60
2023-02-12T05:29:52.021Z,43.76
2023-02-12T05:32:18.600Z,43.89
2023-02-12T05:34:45.235Z,43.91
2023-02-12T05:37:11.905Z,43.64
2023-02-12T05:39:38.539Z,43.64
2023-02-12T05:42:05.089Z,43.70
2023-02-12T05:44:31.651Z,43.62
2023-02-12T05:46:58.160Z,43.33
2023-02-12T05:49:24.725Z,43.71
2023-02-12T05:51:51.257Z,43.54
2023-02-12T05:54:17.802Z,43.66
2023-02-12T05:56:46.562Z,43.83
2023-02-12T05:59:17.463Z,43.67
2023-02-12T06:01:45.713Z,43.91
2023-02-12T06:04:20.265Z,44.08
2023-02-12T06:06:47.118Z,44.31
2023-02-12T06:09:14.711Z,44.25
2023-02-12T06:11:41.960Z,44.05
2023-02-12T06:14:11.021Z,43.99
2023-02-12T06:16:37.633Z,44.34
2023-02-12T06:19:05.826Z,44.17
2023-02-12T06:21:33.514Z,44.14
2023-02-12T06:24:00.350Z,44.15
2023-02-12T06:26:27.606Z,44.37
2023-02-12T06:28:54.252Z,44.11
2023-02-12T06:31:35.617Z,44.43
2023-02-12T06:34:05.795Z,44.15
2023-02-12T06:36:32.543Z,44.54
2023-02-12T06:39:02.299Z,44.24
2023-02-12T06:41:28.991Z,44.05
2023-02-12T06:43:55.578Z,44.17
2023-02-12T06:46:22.768Z,43.51
2023-02-12T06:48:53.447Z,43.33
2023-02-12T06:51:23.608Z,43.40
2023-02-12T06:53:51.363Z,43.44
2023-02-12T06:56:18.564Z,43.60
2023-02-12T06:58:47.447Z,43.20
2023-02-12T07:01:17.919Z,43.38
2023-02-12T07:03:49.132Z,43.39
2023-02-12T07:06:16.193Z,43.35
2023-02-12T07:08:43.057Z,43.21
2023-02-12T07:11:09.784Z,43.09
2023-02-12T07:13:36.563Z,43.31
2023-02-12T07:16:08.624Z,42.60
2023-02-12T07:18:36.108Z,42.98
2023-02-12T07:21:03.542Z,42.76
2023-02-12T07:23:31.050Z,42.85
2023-02-12T07:26:02.506Z,42.75
2023-02-12T07:28:29.112Z,42.26
2023-02-12T07:30:55.689Z,42.10
2023-02-12T07:33:22.264Z,41.86
2023-02-12T07:35:48.868Z,41.79
2023-02-12T07:38:15.540Z,41.16
2023-02-12T07:40:42.060Z,40.75
2023-02-12T07:43:08.571Z,40.40
2023-02-12T07:45:36.116Z,40.07
2023-02-12T07:48:02.675Z,39.49
2023-02-12T07:50:29.216Z,39.29
2023-02-12T07:52:55.847Z,39.46
2023-02-12T07:55:22.590Z,39.65
2023-02-12T07:57:49.144Z,39.77
2023-02-12T08:00:16.168Z,39.23
2023-02-12T08:02:42.713Z,38.64
2023-02-12T08:05:09.585Z,38.95
2023-02-12T08:07:36.210Z,38.75
2023-02-12T08:10:02.829Z,38.65
2023-02-12T08:12:29.403Z,38.60
2023-02-12T08:14:55.921Z,38.85
2023-02-12T08:17:22.420Z,39.10
2023-02-12T08:19:49.003Z,39.99
2023-02-12T08:22:15.577Z,40.03
2023-02-12T08:24:42.645Z,40.81
2023-02-12T08:27:09.139Z,40.57
2023-02-12T08:29:35.712Z,40.51
2023-02-12T08:32:03.917Z,41.79
2023-02-12T08:34:35.234Z,41.46
2023-02-12T08:37:04.177Z,41.26
2023-02-12T08:39:31.104Z,41.27
2023-02-12T08:41:59.565Z,41.09
2023-02-12T08:44:26.355Z,41.00
2023-02-12T08:46:55.538Z,41.08
2023-02-12T08:49:25.580Z,41.20
2023-02-12T08:51:54.653Z,41.47
2023-02-12T08:54:23.954Z,41.44
2023-02-12T08:56:54.051Z,40.96
2023-02-12T08:59:20.657Z,40.87
2023-02-12T09:01:51.099Z,40.88
2023-02-12T09:04:26.184Z,41.05
2023-02-12T09:06:53.110Z,40.51
2023-02-12T09:09:19.958Z,40.21
2023-02-12T09:11:46.863Z,40.28
2023-02-12T09:14:16.065Z,40.59
2023-02-12T09:16:43.032Z,39.82
2023-02-12T09:19:12.889Z,39.73
2023-02-12T09:21:39.581Z,39.32
2023-02-12T09:24:06.280Z,40.06
2023-02-12T09:26:32.901Z,40.14
2023-02-12T09:29:01.411Z,40.49
2023-02-12T09:31:30.051Z,40.51
2023-02-12T09:34:02.556Z,40.28
2023-02-12T09:36:29.759Z,39.96
2023-02-12T09:38:59.150Z,39.25
2023-02-12T09:42:00.189Z,39.58
2023-02-12T09:44:36.237Z,39.27
2023-02-12T09:47:26.816Z,40.13
2023-02-12T09:50:03.499Z,39.36
2023-02-12T09:52:30.942Z,39.37
2023-02-12T09:54:58.591Z,38.71
2023-02-12T09:57:33.668Z,38.20
2023-02-12T10:00:08.478Z,38.11
2023-02-12T10:02:40.217Z,39.36
2023-02-12T10:05:17.591Z,39.22
2023-02-12T10:07:53.548Z,40.02
2023-02-12T10:10:23.308Z,39.84
2023-02-12T10:12:56.069Z,40.39
2023-02-12T10:15:34.862Z,39.64
2023-02-12T10:18:30.150Z,39.37
2023-02-12T10:21:11.035Z,39.11
2023-02-12T10:24:06.983Z,40.61
2023-02-12T10:26:40.033Z,40.78
2023-02-12T10:29:28.784Z,39.55
2023-02-12T10:31:59.982Z,38.25
2023-02-12T10:34:32.745Z,37.87
2023-02-12T10:37:23.294Z,38.89
2023-02-12T10:39:58.024Z,39.11
2023-02-12T10:42:42.759Z,40.56
2023-02-12T10:45:18.380Z,39.35
2023-02-12T10:47:46.697Z,40.07
2023-02-12T10:50:37.934Z,39.79
2023-02-12T10:53:04.513Z,39.74
2023-02-12T10:55:36.877Z,40.09
2023-02-12T10:58:05.371Z,39.57
2023-02-12T11:00:34.653Z,38.69
2023-02-12T11:03:13.670Z,37.90
2023-02-12T11:05:42.466Z,39.38
2023-02-12T11:08:31.332Z,38.21
2023-02-12T11:11:10.826Z,36.67
2023-02-12T11:13:41.671Z,35.55
2023-02-12T11:16:08.989Z,33.26
2023-02-12T11:18:37.401Z,31.02
2023-02-12T11:21:10.384Z,30.20
2023-02-12T11:23:38.315Z,28.01
2023-02-12T11:26:18.499Z,25.93
2023-02-12T11:29:19.017Z,23.68
2023-02-12T11:32:01.757Z,21.92
2023-02-12T11:34:29.773Z,20.44
2023-02-12T11:36:57.728Z,20.17
2023-02-12T11:39:28.955Z,19.62
2023-02-12T11:42:03.788Z,20.24
2023-02-12T11:44:36.017Z,21.14
2023-02-12T11:47:09.211Z,21.75
2023-02-12T11:49:44.395Z,21.64
2023-02-12T11:52:27.625Z,22.59
2023-02-12T11:54:59.512Z,21.97
2023-02-12T11:57:38.231Z,22.83
2023-02-12T12:00:19.409Z,21.32
2023-02-12T12:03:02.575Z,20.32
2023-02-12T12:05:38.702Z,19.82
2023-02-12T12:08:16.751Z,19.47
2023-02-12T12:10:52.835Z,22.03
2023-02-12T12:13:27.239Z,22.05
2023-02-12T12:16:46.700Z,22.53
2023-02-12T12:19:56.778Z,24.55
2023-02-12T12:22:51.671Z,23.92
2023-02-12T12:25:27.279Z,24.76
2023-02-12T12:28:08.250Z,22.53
2023-02-12T12:30:41.056Z,23.92
2023-02-12T12:33:17.176Z,23.65
2023-02-12T12:36:13.014Z,23.33
2023-02-12T12:38:58.966Z,23.11
2023-02-12T12:42:03.133Z,23.40
2023-02-12T12:45:01.841Z,23.13
2023-02-12T12:47:54.728Z,21.95
2023-02-12T12:50:43.360Z,21.37
2023-02-12T12:53:20.023Z,22.90
2023-02-12T12:56:11.456Z,22.44
2023-02-12T12:58:44.037Z,22.85
2023-02-12T13:01:10.977Z,21.73
2023-02-12T13:03:56.317Z,19.16
2023-02-12T13:06:41.184Z,18.60
2023-02-12T13:09:33.459Z,20.00
2023-02-12T13:12:28.263Z,19.07
2023-02-12T13:14:57.704Z,17.34
2023-02-12T13:17:33.335Z,17.37
2023-02-12T13:20:09.606Z,17.79
2023-02-12T13:22:59.155Z,19.16
2023-02-12T13:25:36.008Z,20.19
2023-02-12T13:28:05.871Z,19.92
2023-02-12T13:30:52.555Z,20.78
2023-02-12T13:33:28.861Z,21.86
2023-02-12T13:36:00.341Z,21.68
2023-02-12T13:38:34.573Z,21.01
2023-02-12T13:41:05.777Z,21.06
2023-02-12T13:43:53.633Z,20.30
2023-02-12T13:47:04.662Z,19.50
2023-02-12T13:49:39.849Z,19.70
2023-02-12T13:52:14.178Z,21.82
2023-02-12T13:54:46.436Z,23.43
2023-02-12T13:57:18.834Z,23.52
2023-02-12T13:59:47.888Z,22.58
2023-02-12T14:02:33.095Z,23.37
2023-02-12T14:05:13.073Z,23.26
2023-02-12T14:07:44.101Z,24.24
2023-02-12T14:10:31.161Z,25.63
2023-02-12T14:13:12.485Z,25.86
2023-02-12T14:15:46.100Z,26.91
2023-02-12T14:18:30.672Z,29.32
2023-02-12T14:21:11.984Z,30.68
2023-02-12T14:23:50.701Z,30.04
2023-02-12T14:26:25.014Z,32.31
2023-02-12T14:29:01.902Z,32.44
2023-02-12T14:31:39.295Z,33.11
2023-02-12T14:34:06.039Z,35.39
2023-02-12T14:36:32.663Z,33.88
2023-02-12T14:39:01.373Z,33.57
2023-02-12T14:41:43.046Z,31.62
2023-02-12T14:44:20.462Z,29.88
2023-02-12T14:46:55.908Z,28.85
2023-02-12T14:49:31.135Z,27.10
2023-02-12T14:51:57.948Z,26.63
2023-02-12T14:54:33.230Z,24.95
2023-02-12T14:57:04.999Z,24.39
2023-02-12T14:59:37.632Z,23.97
2023-02-12T15:02:07.633Z,24.96
2023-02-12T15:04:38.073Z,24.49
2023-02-12T15:07:10.406Z,23.80
2023-02-12T15:09:42.470Z,25.84
2023-02-12T15:12:32.627Z,28.06
2023-02-12T15:15:12.565Z,27.62
2023-02-12T15:17:42.305Z,29.35
2023-02-12T15:20:22.495Z,31.43
2023-02-12T15:22:49.034Z,33.90
2023-02-12T15:25:26.847Z,34.35
2023-02-12T15:28:02.862Z,35.56
2023-02-12T15:30:34.118Z,36.44
2023-02-12T15:33:04.920Z,37.06
2023-02-12T15:35:34.281Z,37.79
2023-02-12T15:38:01.868Z,38.46
2023-02-12T15:40:30.785Z,39.33
2023-02-12T15:42:59.076Z,40.68
2023-02-12T15:45:34.776Z,40.08
2023-02-12T15:48:15.732Z,41.26
2023-02-12T15:51:14.131Z,41.46
2023-02-12T15:53:41.563Z,41.24
2023-02-12T15:56:18.141Z,42.68
2023-02-12T15:58:52.314Z,41.86
2023-02-12T16:01:21.707Z,41.77
2023-02-12T16:03:57.954Z,42.46
2023-02-12T16:06:27.244Z,42.67
2023-02-12T16:09:23.201Z,42.88
2023-02-12T16:11:50.330Z,43.64
2023-02-12T16:14:40.752Z,43.31
2023-02-12T16:17:35.155Z,43.39
2023-02-12T16:20:04.288Z,43.64
2023-02-12T16:22:41.983Z,44.00
2023-02-12T16:25:32.196Z,44.34
2023-02-12T16:28:03.916Z,44.37
2023-02-12T16:30:42.232Z,44.47
2023-02-12T16:33:39.939Z,44.48
2023-02-12T16:36:13.250Z,44.99
2023-02-12T16:38:45.507Z,44.99
2023-02-12T16:41:17.874Z,45.60
2023-02-12T16:43:45.394Z,45.60
2023-02-12T16:46:12.876Z,46.10
2023-02-12T16:48:42.766Z,45.88
2023-02-12T16:51:23.364Z,46.28
2023-02-12T16:53:53.778Z,46.96
2023-02-12T16:56:22.353Z,46.30
2023-02-12T16:58:51.852Z,47.01
2023-02-12T17:01:22.946Z,47.33
2023-02-12T17:03:51.159Z,47.04
2023-02-12T17:06:20.076Z,47.37
2023-02-12T17:08:46.636Z,47.22
2023-02-12T17:11:16.031Z,47.18
2023-02-12T17:13:42.545Z,47.39
2023-02-12T17:16:11.265Z,47.64
2023-02-12T17:18:39.518Z,47.60
2023-02-12T17:21:37.854Z,47.93
2023-02-12T17:24:16.569Z,47.97
2023-02-12T17:26:43.229Z,47.70
2023-02-12T17:29:10.836Z,47.93
2023-02-12T17:31:38.074Z,48.11
2023-02-12T17:34:05.199Z,48.41
2023-02-12T17:36:31.907Z,48.48
2023-02-12T17:38:58.497Z,47.96
2023-02-12T17:41:25.104Z,48.48
2023-02-12T17:43:51.744Z,48.52
2023-02-12T17:46:20.687Z,48.92
2023-02-12T17:48:47.631Z,48.98
2023-02-12T17:51:14.524Z,49.15
2023-02-12T17:53:41.445Z,49.26
2023-02-12T17:56:18.963Z,49.35
2023-02-12T17:58:47.173Z,49.25
2023-02-12T18:01:17.012Z,49.39
2023-02-12T18:03:43.971Z,49.72
2023-02-12T18:06:13.959Z,49.83
2023-02-12T18:08:41.624Z,49.83
2023-02-12T18:11:10.273Z,50.02
2023-02-12T18:13:37.967Z,50.10
2023-02-12T18:16:09.915Z,50.87
2023-02-12T18:18:37.199Z,50.66
2023-02-12T18:21:11.942Z,50.49
2023-02-12T18:23:39.445Z,50.80
2023-02-12T18:26:14.608Z,51.35
2023-02-12T18:28:41.180Z,51.16
2023-02-12T18:31:08.401Z,51.51
2023-02-12T18:33:36.042Z,51.28
2023-02-12T18:36:08.871Z,51.77
2023-02-12T18:38:37.149Z,51.87
2023-02-12T18:41:12.711Z,51.94
2023-02-12T18:43:39.817Z,52.45
2023-02-12T18:46:12.525Z,53.50
2023-02-12T18:48:39.666Z,53.77
2023-02-12T18:51:08.044Z,53.65
2023-02-12T18:53:34.949Z,55.11
2023-02-12T18:56:09.770Z,53.76
2023-02-12T18:58:37.010Z,53.80
2023-02-12T19:01:19.158Z,54.71
2023-02-12T19:03:48.500Z,53.63
2023-02-12T19:06:15.196Z,53.78
2023-02-12T19:08:42.022Z,53.97
2023-02-12T19:11:10.949Z,53.83
2023-02-12T19:13:38.108Z,53.55
2023-02-12T19:16:15.613Z,53.17
2023-02-12T19:18:42.463Z,53.10
2023-02-12T19:21:14.149Z,53.14
2023-02-12T19:23:40.774Z,53.33
2023-02-12T19:26:09.578Z,53.20
2023-02-12T19:28:38.201Z,53.33
2023-02-12T19:31:19.109Z,53.03
2023-02-12T19:33:46.995Z,52.92
2023-02-12T19:36:16.943Z,52.79
2023-02-12T19:38:45.388Z,52.71
2023-02-12T19:41:15.525Z,52.71
2023-02-12T19:43:42.381Z,52.84
2023-02-12T19:46:18.019Z,52.39
2023-02-12T19:48:47.099Z,52.53
2023-02-12T19:51:20.406Z,52.40
2023-02-12T19:53:47.839Z,52.49
2023-02-12T19:56:15.810Z,52.25
2023-02-12T19:58:42.870Z,52.64
2023-02-12T20:01:15.315Z,52.34
2023-02-12T20:03:42.286Z,52.44
2023-02-12T20:06:13.010Z,52.48
2023-02-12T20:08:41.451Z,52.61
2023-02-12T20:11:11.129Z,52.15
2023-02-12T20:13:37.801Z,52.42
2023-02-12T20:16:06.634Z,52.50
2023-02-12T20:18:33.600Z,52.62
2023-02-12T20:21:00.853Z,53.03
2023-02-12T20:23:27.459Z,57.12
2023-02-12T20:25:53.983Z,54.83
2023-02-12T20:28:20.796Z,54.50
2023-02-12T20:30:48.492Z,54.19
2023-02-12T20:33:15.407Z,54.34
2023-02-12T20:35:41.971Z,53.63
2023-02-12T20:38:08.544Z,53.39
2023-02-12T20:40:35.107Z,53.46
2023-02-12T20:43:01.715Z,53.03
2023-02-12T20:45:28.370Z,53.51
2023-02-12T20:47:55.018Z,53.35
2023-02-12T20:50:21.560Z,53.83
2023-02-12T20:52:48.207Z,53.81
2023-02-12T20:55:14.847Z,54.78
2023-02-12T20:57:41.397Z,54.88
2023-02-12T21:00:08.723Z,54.08
2023-02-12T21:02:35.460Z,53.79
2023-02-12T21:05:02.053Z,53.44
2023-02-12T21:07:28.595Z,53.18
2023-02-12T21:09:55.148Z,53.00
2023-02-12T21:12:21.695Z,52.61
2023-02-12T21:14:48.224Z,52.24
2023-02-12T21:17:14.761Z,52.58
2023-02-12T21:19:41.373Z,52.36
2023-02-12T21:22:07.939Z,52.06
2023-02-12T21:24:34.603Z,52.49
2023-02-12T21:27:01.214Z,53.38
2023-02-12T21:29:29.176Z,53.95
2023-02-12T21:31:55.929Z,52.99
2023-02-12T21:34:23.443Z,53.08
2023-02-12T21:36:52.380Z,53.11
2023-02-12T21:39:25.439Z,52.63
2023-02-12T21:41:54.314Z,52.62
2023-02-12T21:44:21.844Z,52.85
2023-02-12T21:46:48.864Z,52.80
2023-02-12T21:49:24.430Z,52.78
2023-02-12T21:51:53.075Z,52.90
2023-02-12T21:54:19.998Z,53.10
2023-02-12T21:56:48.084Z,53.28
2023-02-12T21:59:15.645Z,53.64
2023-02-12T22:01:44.880Z,53.30
2023-02-12T22:04:11.927Z,53.47
2023-02-12T22:06:40.538Z,53.97
2023-02-12T22:09:08.906Z,53.69
2023-02-12T22:11:37.225Z,53.62
2023-02-12T22:14:05.034Z,53.66
2023-02-12T22:16:31.734Z,53.69
2023-02-12T22:19:00.198Z,53.97
2023-02-12T22:21:29.462Z,53.39
2023-02-12T22:23:56.734Z,53.75
2023-02-12T22:26:26.680Z,53.36
2023-02-12T22:29:02.941Z,53.71
2023-02-12T22:31:32.338Z,53.87
2023-02-12T22:34:01.855Z,53.61
2023-02-12T22:36:29.354Z,53.82
2023-02-12T22:38:58.778Z,53.80
2023-02-12T22:41:26.499Z,53.55
2023-02-12T22:43:53.117Z,53.36
2023-02-12T22:46:19.801Z,54.07
2023-02-12T22:48:46.921Z,53.97
2023-02-12T22:51:22.327Z,54.04
2023-02-12T22:53:49.158Z,54.18
2023-02-12T22:56:16.558Z,53.89
2023-02-12T22:58:44.464Z,53.75
2023-02-12T23:01:14.630Z,54.07
2023-02-12T23:03:42.300Z,53.41
2023-02-12T23:06:12.548Z,53.76
2023-02-12T23:08:39.422Z,53.85
2023-02-12T23:11:08.399Z,53.75
2023-02-12T23:13:36.297Z,53.96
2023-02-12T23:16:04.020Z,53.96
2023-02-12T23:18:30.583Z,53.97
2023-02-12T23:20:57.578Z,53.84
2023-02-12T23:23:24.390Z,53.69
2023-02-12T23:25:51.204Z,54.50
2023-02-12T23:28:17.786Z,54.19
2023-02-12T23:30:44.562Z,54.55
2023-02-12T23:33:11.483Z,54.33
2023-02-12T23:35:38.040Z,54.08
2023-02-12T23:38:05.020Z,54.30
2023-02-12T23:40:32.507Z,54.44
2023-02-12T23:42:59.402Z,54.79
2023-02-12T23:45:27.328Z,54.47
2023-02-12T23:47:54.326Z,54.12
2023-02-12T23:50:21.085Z,53.67
2023-02-12T23:52:47.641Z,53.92
2023-02-12T23:55:14.285Z,54.21
2023-02-12T23:57:40.818Z,54.15
